Time;durP1;ratioP1;P1;durP2;ratioP2;P2;SDS_P1;SDS_P2;PMS_P1;PMS_P2;Temp;Humidity;BMP_temperature;BMP_pressure;BME280_temperature;BME280_humidity;BME280_pressure;Samples;Min_cycle;Max_cycle;Signal;HPM_P1;HPM_P2
2020/12/02 00:04:12;;;;;;;66.18;17.90;;;4.30;99.90;;;;;;12509550;28;20072;-38
2020/12/02 00:10:14;;;;;;;61.00;17.80;;;4.30;99.90;;;;;;12490149;28;20060;-38
2020/12/02 00:16:21;;;;;;;72.20;18.45;;;4.30;99.90;;;;;;12510990;28;20076;-38
2020/12/02 00:22:23;;;;;;;57.30;18.17;;;4.40;99.90;;;;;;12501048;28;20073;-38
2020/12/02 00:28:25;;;;;;;75.10;20.45;;;4.40;99.90;;;;;;12518979;28;20614;-38
2020/12/02 00:34:27;;;;;;;99.45;21.25;;;4.30;99.90;;;;;;12502354;28;20069;-39
2020/12/02 00:40:28;;;;;;;53.08;18.13;;;4.30;99.90;;;;;;12508421;28;20127;-38
2020/12/02 00:46:29;;;;;;;72.93;21.33;;;4.30;99.90;;;;;;12510892;28;20527;-38
2020/12/02 00:52:31;;;;;;;71.28;20.67;;;4.30;99.90;;;;;;12497237;28;20492;-38
2020/12/02 00:59:02;;;;;;;114.70;21.33;;;4.30;99.90;;;;;;12503422;28;20056;-38
2020/12/02 01:05:11;;;;;;;103.70;21.40;;;4.30;99.90;;;;;;12510855;28;20056;-39
2020/12/02 01:11:18;;;;;;;65.10;20.45;;;4.30;99.90;;;;;;12515370;28;20094;-38
2020/12/02 01:17:20;;;;;;;103.22;21.70;;;4.30;99.90;;;;;;12528539;28;20140;-39
2020/12/02 01:23:21;;;;;;;91.88;23.67;;;4.30;99.90;;;;;;12508950;28;20493;-39
2020/12/02 01:29:24;;;;;;;82.10;23.85;;;4.20;99.90;;;;;;12525769;28;20143;-38
2020/12/02 01:35:27;;;;;;;111.30;26.17;;;4.30;99.90;;;;;;12525938;28;20048;-38
2020/12/02 01:41:29;;;;;;;105.28;25.92;;;4.30;99.90;;;;;;12518301;28;20052;-38
2020/12/02 01:47:52;;;;;;;106.35;30.95;;;4.30;99.90;;;;;;12521350;28;20045;-38
2020/12/02 01:54:06;;;;;;;96.20;32.65;;;4.20;99.90;;;;;;12527626;28;20080;-38
2020/12/02 02:00:16;;;;;;;100.60;34.63;;;4.20;99.90;;;;;;12523035;28;20087;-38
2020/12/02 02:06:41;;;;;;;128.70;37.95;;;4.10;99.90;;;;;;12523353;28;20049;-38
2020/12/02 02:13:04;;;;;;;114.88;41.05;;;4.10;99.90;;;;;;12515197;28;20076;-38
2020/12/02 02:19:07;;;;;;;119.28;40.55;;;4.00;99.90;;;;;;12518643;28;20704;-38
2020/12/02 02:25:12;;;;;;;114.35;39.53;;;4.00;99.90;;;;;;12506768;28;20079;-38
2020/12/02 02:31:22;;;;;;;103.03;37.95;;;3.90;99.90;;;;;;12507409;28;20135;-38
2020/12/02 02:37:27;;;;;;;135.95;41.78;;;3.90;99.90;;;;;;12515482;28;20045;-38
2020/12/02 02:43:29;;;;;;;106.13;39.10;;;3.90;99.90;;;;;;12518294;28;20143;-38
2020/12/02 02:49:30;;;;;;;117.47;41.85;;;3.90;99.90;;;;;;12508466;28;20072;-38
2020/12/02 02:55:31;;;;;;;137.25;41.28;;;3.90;99.90;;;;;;12517498;28;20453;-38
2020/12/02 03:01:34;;;;;;;108.03;39.88;;;3.90;99.90;;;;;;12522483;28;20381;-38
2020/12/02 03:07:38;;;;;;;132.55;41.28;;;3.90;99.90;;;;;;12514847;28;20516;-38
2020/12/02 03:13:44;;;;;;;101.40;40.97;;;3.90;99.90;;;;;;12511395;28;20175;-38
2020/12/02 03:19:53;;;;;;;110.85;39.92;;;4.00;99.90;;;;;;12514208;28;20372;-38
2020/12/02 03:25:55;;;;;;;112.38;41.75;;;3.90;99.90;;;;;;12511234;28;20052;-38
2020/12/02 03:31:56;;;;;;;95.90;39.15;;;3.90;99.90;;;;;;12511053;28;20048;-38
2020/12/02 03:37:57;;;;;;;84.53;38.22;;;4.00;99.90;;;;;;12490697;28;20492;-38
2020/12/02 03:43:59;;;;;;;104.18;40.00;;;4.00;99.90;;;;;;12506520;28;20709;-38
2020/12/02 03:50:00;;;;;;;92.35;39.78;;;3.90;99.90;;;;;;12511579;28;20511;-38
2020/12/02 03:56:01;;;;;;;86.38;37.83;;;3.90;99.90;;;;;;12502490;28;20152;-38
2020/12/02 04:02:03;;;;;;;85.07;37.00;;;4.00;99.90;;;;;;12509108;28;20143;-39
2020/12/02 04:08:05;;;;;;;81.25;37.17;;;3.90;99.90;;;;;;12507564;28;20056;-38
2020/12/02 04:14:06;;;;;;;83.43;37.53;;;3.90;99.90;;;;;;12522040;28;20132;-39
2020/12/02 04:20:08;;;;;;;71.07;35.08;;;3.80;99.90;;;;;;12526987;28;20084;-38
2020/12/02 04:26:09;;;;;;;70.68;36.30;;;3.80;99.90;;;;;;12495373;28;20088;-38
2020/12/02 04:32:11;;;;;;;75.05;34.72;;;3.80;99.90;;;;;;12497134;28;20077;-38
2020/12/02 04:38:12;;;;;;;65.68;33.60;;;3.70;99.90;;;;;;12488857;28;20076;-38
2020/12/02 04:44:14;;;;;;;78.97;35.50;;;3.70;99.90;;;;;;12498098;28;20135;-38
2020/12/02 04:50:24;;;;;;;68.03;34.35;;;3.60;99.90;;;;;;12517504;28;20778;-38
2020/12/02 04:56:26;;;;;;;62.05;32.70;;;3.60;99.90;;;;;;12519308;28;20048;-38
2020/12/02 05:02:30;;;;;;;67.53;33.38;;;3.50;99.90;;;;;;12520183;28;20079;-38
2020/12/02 05:08:31;;;;;;;74.22;34.85;;;3.50;99.90;;;;;;12518506;28;20076;-38
2020/12/02 05:14:38;;;;;;;67.70;34.08;;;3.60;99.90;;;;;;12532100;28;20053;-38
2020/12/02 05:20:40;;;;;;;61.75;30.00;;;3.50;99.90;;;;;;12516110;28;20056;-38
2020/12/02 05:26:50;;;;;;;68.90;35.75;;;3.60;99.90;;;;;;12501575;28;20449;-38
2020/12/02 05:33:14;;;;;;;67.40;33.95;;;3.60;99.90;;;;;;12505567;28;20984;-38
2020/12/02 05:39:18;;;;;;;71.15;34.65;;;3.70;99.90;;;;;;12516745;28;20041;-38
2020/12/02 05:45:29;;;;;;;59.22;30.95;;;3.60;99.90;;;;;;12520217;28;20465;-38
2020/12/02 05:51:31;;;;;;;68.55;33.33;;;3.60;99.90;;;;;;12517524;28;20049;-38
2020/12/02 05:57:34;;;;;;;62.45;31.38;;;3.60;99.90;;;;;;12519689;28;20588;-38
2020/12/02 06:03:38;;;;;;;63.13;31.30;;;3.60;99.90;;;;;;12518936;28;20128;-38
2020/12/02 06:09:42;;;;;;;60.72;33.00;;;3.70;99.90;;;;;;12509437;28;20049;-38
2020/12/02 06:15:44;;;;;;;70.22;32.25;;;3.60;99.90;;;;;;12515096;28;20057;-38
2020/12/02 06:22:02;;;;;;;58.38;29.30;;;3.60;99.90;;;;;;12495909;28;20470;-38
2020/12/02 06:28:03;;;;;;;66.65;31.60;;;3.60;99.90;;;;;;12502472;28;20139;-38
2020/12/02 06:34:22;;;;;;;60.88;30.70;;;3.50;99.90;;;;;;12503798;28;20761;-38
2020/12/02 06:40:24;;;;;;;69.95;31.45;;;3.50;99.90;;;;;;12503272;28;20073;-39
2020/12/02 06:46:53;;;;;;;58.25;29.80;;;3.40;99.90;;;;;;12494781;28;20076;-38
2020/12/02 06:53:11;;;;;;;62.95;31.17;;;3.50;99.90;;;;;;12505858;28;20052;-38
2020/12/02 06:59:12;;;;;;;60.53;30.77;;;3.50;99.90;;;;;;12514528;28;20055;-40
2020/12/02 07:05:24;;;;;;;72.82;30.27;;;3.40;99.90;;;;;;12497631;28;20087;-38
2020/12/02 07:11:26;;;;;;;65.80;29.63;;;3.40;99.90;;;;;;12520354;28;20084;-39
2020/12/02 07:17:28;;;;;;;58.97;28.98;;;3.40;99.90;;;;;;12514532;28;20152;-38
2020/12/02 07:23:32;;;;;;;56.85;28.98;;;3.50;99.90;;;;;;12492900;28;20140;-38
2020/12/02 07:29:33;;;;;;;60.60;30.90;;;3.60;99.90;;;;;;12493554;28;20047;-38
2020/12/02 07:35:34;;;;;;;64.15;29.02;;;3.60;99.90;;;;;;12490301;28;20445;-38
2020/12/02 07:41:36;;;;;;;58.13;29.65;;;3.50;99.90;;;;;;12501532;28;20189;-38
2020/12/02 07:47:38;;;;;;;57.70;28.25;;;3.50;99.90;;;;;;12485575;28;20095;-38
2020/12/02 07:53:56;;;;;;;58.92;29.85;;;3.50;99.90;;;;;;12508370;28;20131;-38
2020/12/02 08:00:25;;;;;;;62.13;31.35;;;3.50;99.90;;;;;;12518325;28;20507;-38
2020/12/02 08:06:48;;;;;;;62.40;30.17;;;3.60;99.90;;;;;;12511465;28;20417;-39
2020/12/02 08:12:50;;;;;;;60.30;30.90;;;3.60;99.90;;;;;;12520655;28;20361;-38
2020/12/02 08:18:54;;;;;;;59.47;29.98;;;3.60;99.90;;;;;;12513600;28;20573;-39
2020/12/02 08:25:16;;;;;;;67.70;31.33;;;3.70;99.90;;;;;;12499242;28;20568;-38
2020/12/02 08:31:27;;;;;;;64.07;30.13;;;3.70;99.90;;;;;;12490193;28;20076;-38
2020/12/02 08:37:38;;;;;;;66.95;30.92;;;3.70;99.90;;;;;;12504306;28;20085;-38
2020/12/02 08:43:47;;;;;;;59.00;29.80;;;3.70;99.90;;;;;;12508849;28;20044;-38
2020/12/02 08:49:50;;;;;;;61.38;29.70;;;3.70;99.90;;;;;;12501895;28;20581;-38
2020/12/02 08:55:51;;;;;;;57.47;30.23;;;3.70;99.90;;;;;;12511482;28;20442;-38
2020/12/02 09:02:00;;;;;;;58.30;29.48;;;3.70;99.90;;;;;;12508704;28;20077;-38
2020/12/02 09:08:01;;;;;;;59.83;29.58;;;3.90;99.90;;;;;;12488189;28;20084;-38
2020/12/02 09:14:05;;;;;;;57.33;29.70;;;4.00;99.90;;;;;;12513931;28;20076;-38
2020/12/02 09:20:06;;;;;;;60.55;30.73;;;3.90;99.90;;;;;;12509490;28;20040;-38
2020/12/02 09:26:08;;;;;;;64.20;30.63;;;4.00;99.90;;;;;;12498218;28;20511;-38
2020/12/02 09:32:09;;;;;;;64.13;30.35;;;4.10;99.90;;;;;;12518012;28;20049;-39
2020/12/02 09:38:11;;;;;;;54.92;27.50;;;4.00;99.90;;;;;;12506435;28;20044;-38
2020/12/02 09:44:32;;;;;;;57.42;29.60;;;4.10;99.90;;;;;;12511172;28;20128;-38
2020/12/02 09:50:33;;;;;;;61.33;29.30;;;4.10;99.90;;;;;;12510184;28;20080;-38
2020/12/02 09:56:41;;;;;;;62.15;30.20;;;4.20;99.90;;;;;;12510696;28;20049;-38
2020/12/02 10:03:28;;;;;;;54.92;27.90;;;4.10;99.90;;;;;;12515971;28;20037;-38
2020/12/02 10:09:52;;;;;;;58.08;28.02;;;4.00;99.90;;;;;;12510136;28;20476;-39
2020/12/02 10:16:26;;;;;;;53.63;26.63;;;4.00;99.90;;;;;;12523498;28;20766;-38
2020/12/02 10:22:44;;;;;;;47.28;24.13;;;4.20;99.90;;;;;;12481117;28;20132;-38
2020/12/02 10:28:57;;;;;;;57.05;27.33;;;4.40;99.90;;;;;;12507356;28;20064;-38
2020/12/02 10:34:58;;;;;;;51.83;27.45;;;4.40;99.90;;;;;;12516406;28;20396;-38
2020/12/02 10:41:25;;;;;;;50.35;27.08;;;4.40;99.90;;;;;;12524014;28;20096;-39
2020/12/02 10:47:51;;;;;;;50.17;26.13;;;4.50;99.90;;;;;;12510281;28;20049;-39
2020/12/02 10:53:53;;;;;;;52.50;26.85;;;4.70;99.90;;;;;;12515746;28;20076;-41
2020/12/02 10:59:57;;;;;;;43.85;23.10;;;4.70;99.90;;;;;;12495794;28;20059;-38
2020/12/02 11:06:23;;;;;;;43.60;23.27;;;4.60;99.90;;;;;;12496219;28;20040;-38
2020/12/02 11:12:51;;;;;;;35.53;19.17;;;4.60;99.90;;;;;;12507445;28;20076;-38
2020/12/02 11:19:18;;;;;;;26.95;15.60;;;4.50;99.90;;;;;;12516411;28;20080;-38
2020/12/02 11:25:20;;;;;;;33.05;17.35;;;4.30;99.90;;;;;;12486797;28;20041;-39
2020/12/02 11:31:55;;;;;;;28.17;16.55;;;4.10;99.90;;;;;;12496773;28;20049;-38
2020/12/02 11:38:20;;;;;;;33.95;17.40;;;4.10;99.90;;;;;;12490441;28;20068;-38
2020/12/02 11:44:45;;;;;;;31.63;16.13;;;4.20;99.90;;;;;;12495447;28;20045;-38
2020/12/02 11:50:56;;;;;;;32.13;18.10;;;4.10;99.90;;;;;;12484907;28;20179;-39
2020/12/02 11:56:57;;;;;;;27.98;15.48;;;4.10;99.90;;;;;;12518114;28;20523;-38
2020/12/02 12:03:19;;;;;;;28.00;15.80;;;4.10;99.90;;;;;;12505745;28;20045;-38
2020/12/02 12:09:37;;;;;;;24.42;14.13;;;4.20;99.90;;;;;;12512567;28;20044;-38
2020/12/02 12:15:42;;;;;;;22.15;13.32;;;4.20;99.90;;;;;;12519885;28;20052;-38
2020/12/02 12:22:15;;;;;;;25.38;13.60;;;4.30;99.90;;;;;;12504407;28;21291;-38
2020/12/02 12:28:26;;;;;;;22.98;13.20;;;4.30;99.90;;;;;;12478432;28;20114;-39
2020/12/02 12:34:58;;;;;;;20.48;11.98;;;4.30;99.90;;;;;;12513954;28;20115;-38
2020/12/02 12:41:19;;;;;;;22.02;12.45;;;4.20;99.90;;;;;;12509307;28;20044;-38
2020/12/02 12:47:27;;;;;;;23.40;13.50;;;4.20;99.90;;;;;;12499691;28;20044;-38
2020/12/02 12:53:28;;;;;;;22.15;13.25;;;4.10;99.90;;;;;;12518834;28;20048;-40
2020/12/02 12:59:33;;;;;;;24.55;13.50;;;4.10;99.90;;;;;;12510096;28;20048;-38
2020/12/02 13:05:34;;;;;;;20.07;11.90;;;4.10;99.90;;;;;;12500713;28;20051;-38
2020/12/02 13:11:53;;;;;;;20.90;11.77;;;4.10;99.90;;;;;;12521692;28;20175;-38
2020/12/02 13:18:22;;;;;;;24.92;13.07;;;4.00;99.90;;;;;;12522782;28;20080;-37
2020/12/02 13:24:50;;;;;;;20.00;11.18;;;3.90;99.90;;;;;;12521902;28;20515;-38
2020/12/02 13:30:58;;;;;;;20.63;10.75;;;3.90;99.90;;;;;;12515617;28;20095;-38
2020/12/02 13:37:00;;;;;;;21.10;11.07;;;3.90;99.90;;;;;;12505563;28;20064;-38
2020/12/02 13:43:03;;;;;;;17.17;10.02;;;3.90;99.90;;;;;;12529124;28;20084;-37
2020/12/02 13:49:09;;;;;;;16.45;10.48;;;3.90;99.90;;;;;;12497946;28;20056;-38
2020/12/02 13:55:33;;;;;;;14.48;8.85;;;3.90;99.90;;;;;;12518215;28;20055;-38
2020/12/02 14:01:37;;;;;;;15.82;8.77;;;3.80;99.90;;;;;;12523489;28;20091;-38
2020/12/02 14:07:42;;;;;;;13.07;8.48;;;3.80;99.90;;;;;;12497533;28;20381;-38
2020/12/02 14:13:43;;;;;;;14.38;9.60;;;3.70;99.90;;;;;;12516490;28;20388;-37
2020/12/02 14:19:45;;;;;;;12.30;7.90;;;3.70;99.90;;;;;;12522596;28;20040;-38
2020/12/02 14:25:47;;;;;;;12.35;7.72;;;3.60;99.90;;;;;;12513039;28;20072;-38
2020/12/02 14:31:48;;;;;;;13.57;8.45;;;3.60;99.90;;;;;;12515916;28;20465;-38
2020/12/02 14:37:55;;;;;;;15.40;8.57;;;3.60;99.90;;;;;;12509102;28;20176;-38
2020/12/02 14:43:56;;;;;;;13.82;8.00;;;3.60;99.90;;;;;;12515431;28;21063;-39
2020/12/02 14:49:57;;;;;;;12.40;8.05;;;3.50;99.90;;;;;;12512478;28;20139;-38
2020/12/02 14:56:17;;;;;;;14.43;8.95;;;3.50;99.90;;;;;;12511654;28;20052;-38
2020/12/02 15:02:19;;;;;;;15.63;9.63;;;3.40;99.90;;;;;;12519961;28;20090;-38
2020/12/02 15:08:31;;;;;;;16.95;10.30;;;3.40;99.90;;;;;;12510313;28;20052;-38
2020/12/02 15:14:36;;;;;;;21.15;12.38;;;3.30;99.90;;;;;;12520731;28;20083;-38
2020/12/02 15:20:39;;;;;;;19.83;12.45;;;3.20;99.90;;;;;;12510985;28;20148;-38
2020/12/02 15:26:43;;;;;;;22.23;13.40;;;3.20;99.90;;;;;;12502963;28;20140;-38
2020/12/02 15:32:46;;;;;;;21.55;12.95;;;3.10;99.90;;;;;;12505241;28;20372;-37
2020/12/02 15:39:03;;;;;;;26.75;14.10;;;3.10;99.90;;;;;;12494005;28;20128;-38
2020/12/02 15:45:29;;;;;;;24.73;13.55;;;3.00;99.90;;;;;;12515183;28;20055;-38
2020/12/02 15:51:38;;;;;;;;;;;3.00;99.90;;;;;;12503044;28;20049;-38
2020/12/02 15:58:04;;;;;;;23.45;13.43;;;3.00;99.90;;;;;;12512653;28;19924;-38
2020/12/02 16:04:31;;;;;;;23.25;13.07;;;2.90;99.90;;;;;;12509702;28;20425;-39
2020/12/02 16:10:33;;;;;;;25.75;14.95;;;2.90;99.90;;;;;;12517723;28;20079;-38
2020/12/02 16:16:34;;;;;;;25.77;14.45;;;2.90;99.90;;;;;;12523485;28;20049;-38
2020/12/02 16:22:39;;;;;;;25.52;15.05;;;2.90;99.90;;;;;;12498636;28;20425;-37
2020/12/02 16:28:43;;;;;;;25.83;15.13;;;2.80;99.90;;;;;;12491663;28;20135;-37
2020/12/02 16:34:44;;;;;;;25.00;15.00;;;2.80;99.90;;;;;;12481331;28;20453;-38
2020/12/02 16:40:49;;;;;;;28.55;16.98;;;2.80;99.90;;;;;;12515768;28;20056;-37
2020/12/02 16:47:21;;;;;;;30.73;18.35;;;2.80;99.90;;;;;;12502903;28;20044;-38
2020/12/02 16:53:37;;;;;;;37.95;21.30;;;2.80;99.90;;;;;;12524726;28;20131;-38
2020/12/02 16:59:52;;;;;;;31.15;19.45;;;2.80;99.90;;;;;;12508880;28;20129;-38
2020/12/02 17:05:54;;;;;;;30.23;18.37;;;2.70;99.90;;;;;;12520641;28;20044;-38
2020/12/02 17:12:20;;;;;;;26.77;15.60;;;2.60;99.90;;;;;;12529737;28;20080;-38
2020/12/02 17:18:30;;;;;;;26.88;15.80;;;2.60;99.90;;;;;;12534713;28;20167;-38
2020/12/02 17:24:37;;;;;;;29.10;15.82;;;2.60;99.90;;;;;;12484536;28;20164;-38
2020/12/02 17:30:58;;;;;;;30.25;16.20;;;2.60;99.90;;;;;;12498576;28;20062;-37
2020/12/02 17:37:31;;;;;;;30.10;15.95;;;2.60;99.90;;;;;;12511966;28;20135;-38
2020/12/02 17:43:54;;;;;;;27.85;13.30;;;2.60;99.90;;;;;;12522527;28;20174;-38
2020/12/02 17:50:12;;;;;;;22.45;12.75;;;2.70;99.90;;;;;;12527861;28;20532;-38
2020/12/02 17:56:21;;;;;;;20.38;11.93;;;2.80;99.90;;;;;;12503941;28;20056;-38
2020/12/02 18:02:48;;;;;;;21.63;12.70;;;2.70;99.90;;;;;;12524146;28;20080;-37
2020/12/02 18:09:29;;;;;;;22.75;13.45;;;2.80;99.90;;;;;;12507403;28;20053;-38
2020/12/02 18:15:37;;;;;;;23.05;13.38;;;2.80;99.90;;;;;;12528226;28;20454;-38
2020/12/02 18:21:51;;;;;;;20.33;13.02;;;2.70;99.90;;;;;;12523581;28;20135;-38
2020/12/02 18:28:21;;;;;;;23.83;13.20;;;2.60;99.90;;;;;;12502153;28;20052;-38
2020/12/02 18:34:45;;;;;;;24.63;13.68;;;2.60;99.90;;;;;;12509691;28;20045;-38
2020/12/02 18:41:17;;;;;;;25.67;14.38;;;2.60;99.90;;;;;;12527903;28;20060;-37
2020/12/02 18:47:20;;;;;;;28.65;14.07;;;2.60;99.90;;;;;;12510789;28;20048;-38
2020/12/02 18:53:22;;;;;;;24.20;14.80;;;2.60;99.90;;;;;;12521678;28;20068;-37
2020/12/02 18:59:37;;;;;;;25.02;15.07;;;2.60;99.90;;;;;;12509025;28;20060;-37
2020/12/02 19:05:39;;;;;;;25.45;14.73;;;2.60;99.90;;;;;;12520410;28;20079;-38
2020/12/02 19:11:52;;;;;;;28.80;17.15;;;2.60;99.90;;;;;;12516617;28;20591;-38
2020/12/02 19:18:25;;;;;;;76.55;41.45;;;2.50;99.90;;;;;;12526937;28;20057;-38
2020/12/02 19:24:30;;;;;;;27.20;16.42;;;2.40;99.90;;;;;;12516296;28;20500;-38
2020/12/02 19:30:41;;;;;;;30.95;17.70;;;2.40;99.90;;;;;;12511284;28;20047;-38
2020/12/02 19:36:48;;;;;;;31.50;17.23;;;2.30;99.90;;;;;;12494286;28;20594;-38
2020/12/02 19:43:24;;;;;;;30.90;18.10;;;2.30;99.90;;;;;;12517058;28;20095;-37
2020/12/02 19:49:33;;;;;;;32.63;18.35;;;2.40;99.90;;;;;;12513536;28;20049;-38
2020/12/02 19:55:34;;;;;;;31.67;18.48;;;2.30;99.90;;;;;;12487084;28;20163;-38
2020/12/02 20:02:02;;;;;;;33.88;18.45;;;2.40;99.90;;;;;;12518347;28;20048;-38
2020/12/02 20:08:37;;;;;;;27.98;16.88;;;2.30;99.90;;;;;;12510950;28;20075;-38
2020/12/02 20:14:45;;;;;;;30.30;17.55;;;2.30;99.90;;;;;;12524491;28;20460;-38
2020/12/02 20:20:55;;;;;;;29.73;16.50;;;2.30;99.90;;;;;;12525579;28;20072;-38
2020/12/02 20:27:06;;;;;;;27.20;17.08;;;2.40;99.90;;;;;;12502149;28;20057;-38
2020/12/02 20:33:13;;;;;;;29.50;17.20;;;2.40;99.90;;;;;;12510880;28;20080;-37
2020/12/02 20:39:15;;;;;;;31.30;17.50;;;2.40;99.90;;;;;;12508573;28;20068;-38
2020/12/02 20:45:17;;;;;;;28.85;17.42;;;2.30;99.90;;;;;;12514204;28;20049;-38
2020/12/02 20:51:57;;;;;;;35.50;18.25;;;2.40;99.90;;;;;;12477330;28;20048;-38
2020/12/02 20:58:11;;;;;;;31.88;17.48;;;2.40;99.90;;;;;;12474119;28;20083;-40
2020/12/02 21:04:15;;;;;;;28.65;17.30;;;2.40;99.90;;;;;;12500402;28;20135;-38
2020/12/02 21:10:17;;;;;;;32.63;18.23;;;2.30;99.90;;;;;;12513398;28;20068;-38
2020/12/02 21:16:41;;;;;;;31.45;17.80;;;2.30;99.90;;;;;;12523530;28;20095;-38
2020/12/02 21:23:09;;;;;;;33.57;18.93;;;2.30;99.90;;;;;;12500998;28;20056;-38
2020/12/02 21:29:15;;;;;;;29.38;17.80;;;2.40;99.90;;;;;;12498405;28;20299;-38
2020/12/02 21:35:33;;;;;;;31.98;18.27;;;2.40;99.90;;;;;;12505559;28;20439;-38
2020/12/02 21:41:38;;;;;;;31.63;17.42;;;2.50;99.90;;;;;;12524263;28;20147;-38
2020/12/02 21:47:56;;;;;;;28.10;16.95;;;2.50;99.90;;;;;;12522300;28;20052;-38
2020/12/02 21:54:26;;;;;;;29.77;17.30;;;2.60;99.90;;;;;;12511574;28;20048;-38
2020/12/02 22:00:33;;;;;;;32.88;18.08;;;2.50;99.90;;;;;;12511460;28;20139;-38
2020/12/02 22:06:59;;;;;;;32.22;17.73;;;2.40;99.90;;;;;;12504781;28;20057;-37
2020/12/02 22:13:33;;;;;;;31.75;18.42;;;2.40;99.90;;;;;;12527209;28;20080;-37
2020/12/02 22:20:12;;;;;;;30.40;17.98;;;2.30;99.90;;;;;;12522220;28;20057;-38
2020/12/02 22:26:13;;;;;;;32.20;17.42;;;2.20;99.90;;;;;;12492257;28;20087;-38
2020/12/02 22:32:43;;;;;;;34.15;18.08;;;2.10;99.90;;;;;;12497716;28;20053;-37
2020/12/02 22:38:53;;;;;;;33.85;19.02;;;1.90;99.90;;;;;;12510250;28;20428;-37
2020/12/02 22:45:02;;;;;;;37.22;19.25;;;1.90;99.90;;;;;;12506129;28;20052;-38
2020/12/02 22:51:13;;;;;;;38.95;19.83;;;2.00;99.90;;;;;;12519247;28;20083;-37
2020/12/02 22:57:26;;;;;;;38.05;18.95;;;2.10;99.90;;;;;;12507806;28;20071;-38
2020/12/02 23:03:31;;;;;;;38.05;19.73;;;2.10;99.90;;;;;;12515795;28;20049;-38
2020/12/02 23:09:37;;;;;;;39.15;21.13;;;2.10;99.90;;;;;;12493309;28;20080;-38
2020/12/02 23:15:49;;;;;;;43.53;21.67;;;2.20;99.90;;;;;;12523544;28;20052;-38
2020/12/02 23:21:50;;;;;;;40.40;20.77;;;2.20;99.90;;;;;;12512637;28;20099;-38
2020/12/02 23:28:16;;;;;;;40.47;20.33;;;2.20;99.90;;;;;;12499979;28;20059;-38
2020/12/02 23:34:22;;;;;;;39.72;20.55;;;2.30;99.90;;;;;;12498914;28;20075;-38
2020/12/02 23:40:24;;;;;;;39.00;19.60;;;2.20;99.90;;;;;;12514078;28;20461;-38
2020/12/02 23:46:47;;;;;;;35.67;19.63;;;2.40;99.90;;;;;;12513078;28;20052;-38
2020/12/02 23:52:49;;;;;;;38.67;20.05;;;2.30;99.90;;;;;;12514534;28;20444;-38
2020/12/02 23:58:50;;;;;;;36.65;19.95;;;2.30;99.90;;;;;;12499794;28;20148;-38
